createdAt,value
2022-12-08T00:00:04.998Z,21.00
2022-12-08T00:00:17.504Z,20.48
2022-12-08T00:00:30.001Z,19.77
2022-12-08T00:00:42.359Z,20.08
2022-12-08T00:00:54.261Z,19.85
2022-12-08T00:01:11.327Z,20.30
2022-12-08T00:01:25.878Z,19.02
2022-12-08T00:01:37.918Z,19.40
2022-12-08T00:01:50.022Z,21.40
2022-12-08T00:02:02.237Z,22.00
2022-12-08T00:02:16.028Z,20.25
2022-12-08T00:02:28.175Z,19.88
2022-12-08T00:02:42.412Z,20.58
2022-12-08T00:02:55.425Z,19.98
2022-12-08T00:03:07.672Z,19.55
2022-12-08T00:03:19.951Z,19.80
2022-12-08T00:03:32.548Z,19.30
2022-12-08T00:03:45.471Z,20.05
2022-12-08T00:03:59.332Z,19.13
2022-12-08T00:04:11.451Z,19.67
2022-12-08T00:04:23.361Z,19.77
2022-12-08T00:04:55.258Z,20.23
2022-12-08T00:05:25.915Z,18.77
2022-12-08T00:05:56.289Z,19.80
2022-12-08T00:06:50.276Z,20.17
2022-12-08T00:07:20.622Z,19.33
2022-12-08T00:07:52.327Z,20.77
2022-12-08T00:08:23.205Z,19.20
2022-12-08T00:08:54.275Z,20.90
2022-12-08T00:09:24.235Z,18.95
2022-12-08T00:09:39.765Z,21.60
2022-12-08T00:09:52.705Z,19.98
2022-12-08T00:10:25.121Z,18.70
2022-12-08T00:10:48.861Z,21.30
2022-12-08T00:11:02.136Z,22.00
2022-12-08T00:11:15.693Z,20.63
2022-12-08T00:11:27.700Z,20.50
2022-12-08T00:11:40.978Z,20.88
2022-12-08T00:11:54.978Z,20.80
2022-12-08T00:12:10.067Z,20.00
2022-12-08T00:12:22.124Z,19.67
2022-12-08T00:12:34.105Z,20.92
2022-12-08T00:12:46.026Z,21.40
2022-12-08T00:12:58.211Z,20.90
2022-12-08T00:13:10.232Z,20.90
2022-12-08T00:13:22.172Z,23.05
2022-12-08T00:13:34.059Z,22.75
2022-12-08T00:13:47.065Z,22.83
2022-12-08T00:13:59.029Z,20.02
2022-12-08T00:14:10.933Z,22.00
2022-12-08T00:14:26.550Z,23.23
2022-12-08T00:14:41.507Z,21.45
2022-12-08T00:14:54.553Z,20.30
2022-12-08T00:15:07.683Z,20.35
2022-12-08T00:15:20.074Z,20.80
2022-12-08T00:15:31.979Z,20.48
2022-12-08T00:15:43.914Z,20.35
2022-12-08T00:16:03.146Z,19.95
2022-12-08T00:16:15.080Z,20.70
2022-12-08T00:16:27.141Z,20.92
2022-12-08T00:16:39.434Z,19.60
2022-12-08T00:16:53.037Z,20.17
2022-12-08T00:17:06.728Z,22.40
2022-12-08T00:17:18.765Z,21.17
2022-12-08T00:17:30.707Z,20.00
2022-12-08T00:17:42.706Z,18.92
2022-12-08T00:17:55.849Z,19.23
2022-12-08T00:18:07.975Z,19.77
2022-12-08T00:18:20.078Z,21.63
2022-12-08T00:18:31.987Z,24.80
2022-12-08T00:18:43.929Z,26.95
2022-12-08T00:18:56.235Z,24.10
2022-12-08T00:19:08.205Z,21.52
2022-12-08T00:19:20.789Z,22.42
2022-12-08T00:19:32.772Z,21.17
2022-12-08T00:19:45.531Z,19.48
2022-12-08T00:19:57.428Z,19.92
2022-12-08T00:20:09.900Z,20.95
2022-12-08T00:20:21.926Z,19.40
2022-12-08T00:20:33.852Z,19.38
2022-12-08T00:20:46.512Z,20.10
2022-12-08T00:20:59.478Z,20.48
2022-12-08T00:21:11.374Z,18.95
2022-12-08T00:21:24.120Z,19.52
2022-12-08T00:21:36.471Z,20.73
2022-12-08T00:21:48.419Z,21.15
2022-12-08T00:22:01.085Z,23.25
2022-12-08T00:22:14.688Z,22.73
2022-12-08T00:22:26.990Z,19.58
2022-12-08T00:22:39.018Z,18.45
2022-12-08T00:22:50.936Z,19.02
2022-12-08T00:23:04.201Z,20.00
2022-12-08T00:23:17.014Z,20.10
2022-12-08T00:23:29.531Z,21.50
2022-12-08T00:23:41.465Z,20.20
2022-12-08T00:23:55.928Z,19.45
2022-12-08T00:24:08.795Z,18.83
2022-12-08T00:24:22.480Z,22.00
2022-12-08T00:24:39.417Z,23.02
2022-12-08T00:24:52.176Z,21.25
2022-12-08T00:25:04.770Z,20.95
2022-12-08T00:25:16.964Z,19.15
2022-12-08T00:25:28.865Z,19.60
2022-12-08T00:25:40.805Z,22.30
2022-12-08T00:25:52.847Z,23.00
2022-12-08T00:26:06.165Z,23.40
2022-12-08T00:26:18.799Z,21.23
2022-12-08T00:26:30.816Z,19.83
2022-12-08T00:26:42.837Z,20.52
2022-12-08T00:26:55.083Z,21.13
2022-12-08T00:27:09.129Z,19.88
2022-12-08T00:27:21.679Z,19.75
2022-12-08T00:27:33.747Z,19.83
2022-12-08T00:27:47.226Z,20.90
2022-12-08T00:27:59.521Z,20.88
2022-12-08T00:28:11.446Z,19.17
2022-12-08T00:28:23.327Z,19.75
2022-12-08T00:28:35.499Z,19.02
2022-12-08T00:28:48.338Z,19.52
2022-12-08T00:29:00.274Z,19.88
2022-12-08T00:29:17.148Z,21.02
2022-12-08T00:29:30.036Z,20.17
2022-12-08T00:29:43.776Z,19.85
2022-12-08T00:29:55.731Z,21.73
2022-12-08T00:30:08.365Z,22.13
2022-12-08T00:30:20.248Z,22.00
2022-12-08T00:30:32.376Z,20.80
2022-12-08T00:30:44.868Z,21.25
2022-12-08T00:30:56.858Z,21.60
2022-12-08T00:31:11.369Z,20.65
2022-12-08T00:31:23.344Z,20.15
2022-12-08T00:31:35.480Z,20.60
2022-12-08T00:31:48.009Z,19.45
2022-12-08T00:32:00.268Z,20.50
2022-12-08T00:32:13.293Z,20.30
2022-12-08T00:32:25.454Z,19.65
2022-12-08T00:32:37.825Z,19.77
2022-12-08T00:32:49.737Z,20.20
2022-12-08T00:33:01.627Z,19.95
2022-12-08T00:33:13.606Z,19.83
2022-12-08T00:33:27.774Z,20.05
2022-12-08T00:33:40.476Z,19.92
2022-12-08T00:33:52.360Z,19.83
2022-12-08T00:34:04.881Z,19.42
2022-12-08T00:34:17.593Z,19.38
2022-12-08T00:34:31.027Z,19.00
2022-12-08T00:34:42.920Z,20.65
2022-12-08T00:34:54.843Z,21.20
2022-12-08T00:35:07.188Z,21.45
2022-12-08T00:35:19.233Z,21.10
2022-12-08T00:35:31.133Z,21.17
2022-12-08T00:35:43.738Z,20.73
2022-12-08T00:35:55.629Z,22.27
2022-12-08T00:36:13.479Z,21.17
2022-12-08T00:36:25.647Z,18.52
2022-12-08T00:36:37.604Z,18.42
2022-12-08T00:36:49.548Z,20.13
2022-12-08T00:37:01.572Z,20.77
2022-12-08T00:37:13.466Z,21.48
2022-12-08T00:37:25.595Z,22.65
2022-12-08T00:37:37.518Z,22.65
2022-12-08T00:37:50.378Z,22.27
2022-12-08T00:38:02.718Z,24.48
2022-12-08T00:38:14.662Z,26.05
2022-12-08T00:38:26.553Z,23.88
2022-12-08T00:38:39.609Z,20.88
2022-12-08T00:38:51.863Z,20.63
2022-12-08T00:39:03.783Z,20.92
2022-12-08T00:39:17.434Z,20.23
2022-12-08T00:39:29.399Z,22.90
2022-12-08T00:39:41.323Z,24.98
2022-12-08T00:39:54.135Z,25.83
2022-12-08T00:40:06.852Z,25.20
2022-12-08T00:40:18.874Z,23.77
2022-12-08T00:40:30.817Z,23.35
2022-12-08T00:40:46.262Z,21.75
2022-12-08T00:40:59.349Z,21.45
2022-12-08T00:41:39.823Z,22.77
2022-12-08T00:42:10.444Z,23.05
2022-12-08T00:42:22.331Z,20.42
2022-12-08T00:42:34.237Z,21.58
2022-12-08T00:42:46.195Z,24.17
2022-12-08T00:42:58.089Z,24.17
2022-12-08T00:43:09.959Z,23.13
2022-12-08T00:43:23.165Z,21.13
2022-12-08T00:43:35.619Z,20.52
2022-12-08T00:43:47.555Z,21.02
2022-12-08T00:44:00.473Z,19.00
2022-12-08T00:44:15.282Z,19.42
2022-12-08T00:44:27.729Z,18.88
2022-12-08T00:44:45.419Z,18.25
2022-12-08T00:44:57.415Z,20.75
2022-12-08T00:45:10.145Z,21.83
2022-12-08T00:45:22.422Z,20.85
2022-12-08T00:45:34.391Z,20.42
2022-12-08T00:45:46.391Z,21.27
2022-12-08T00:45:58.522Z,22.15
2022-12-08T00:46:11.961Z,20.35
2022-12-08T00:46:23.991Z,19.10
2022-12-08T00:46:36.328Z,18.98
2022-12-08T00:46:48.919Z,21.00
2022-12-08T00:47:00.999Z,23.38
2022-12-08T00:47:13.856Z,21.33
2022-12-08T00:47:25.736Z,18.95
2022-12-08T00:47:38.449Z,18.70
2022-12-08T00:47:50.321Z,20.35
2022-12-08T00:48:02.230Z,21.30
2022-12-08T00:48:14.547Z,21.08
2022-12-08T00:48:26.494Z,21.48
2022-12-08T00:48:39.154Z,20.70
2022-12-08T00:48:51.024Z,20.98
2022-12-08T00:49:04.450Z,20.65
2022-12-08T00:49:18.655Z,19.98
2022-12-08T00:49:30.588Z,19.02
2022-12-08T00:49:42.521Z,20.45
2022-12-08T00:49:54.449Z,20.85
2022-12-08T00:50:07.271Z,20.83
2022-12-08T00:50:20.848Z,21.60
2022-12-08T00:50:33.380Z,22.13
2022-12-08T00:50:46.043Z,20.15
2022-12-08T00:50:57.998Z,19.25
2022-12-08T00:51:09.992Z,18.33
2022-12-08T00:51:23.150Z,18.27
2022-12-08T00:51:35.103Z,18.52
2022-12-08T00:51:47.466Z,18.67
2022-12-08T00:51:59.412Z,19.67
2022-12-08T00:52:12.570Z,21.50
2022-12-08T00:52:24.779Z,21.90
2022-12-08T00:52:37.281Z,20.27
2022-12-08T00:52:49.385Z,20.40
2022-12-08T00:53:01.307Z,20.73
2022-12-08T00:53:13.193Z,21.40
2022-12-08T00:53:25.150Z,21.08
2022-12-08T00:53:37.148Z,20.77
2022-12-08T00:53:49.452Z,20.00
2022-12-08T00:54:01.484Z,19.83
2022-12-08T00:54:14.596Z,19.33
2022-12-08T00:54:26.675Z,19.58
2022-12-08T00:54:38.646Z,19.92
2022-12-08T00:54:50.522Z,20.90
2022-12-08T00:55:02.494Z,20.30
2022-12-08T00:55:15.754Z,20.15
2022-12-08T00:55:27.650Z,19.90
2022-12-08T00:55:39.546Z,19.17
2022-12-08T00:55:51.458Z,19.83
2022-12-08T00:56:03.475Z,20.10
2022-12-08T00:56:15.919Z,19.50
2022-12-08T00:56:27.941Z,19.38
2022-12-08T00:56:39.922Z,20.70
2022-12-08T00:56:52.154Z,20.38
2022-12-08T00:57:04.273Z,18.98
2022-12-08T00:57:16.174Z,19.85
2022-12-08T00:57:28.165Z,21.40
2022-12-08T00:57:40.704Z,21.80
2022-12-08T00:57:52.617Z,21.60
2022-12-08T00:58:04.573Z,20.60
2022-12-08T00:58:16.474Z,19.00
2022-12-08T00:58:28.418Z,18.75
2022-12-08T00:58:41.596Z,19.40
2022-12-08T00:58:53.586Z,20.48
2022-12-08T00:59:07.400Z,20.10
2022-12-08T00:59:19.330Z,20.13
2022-12-08T00:59:31.242Z,20.17
2022-12-08T00:59:43.174Z,18.83
2022-12-08T00:59:55.114Z,18.70
2022-12-08T01:00:08.617Z,18.27
2022-12-08T01:00:20.830Z,18.15
2022-12-08T01:00:32.796Z,18.50
2022-12-08T01:00:45.451Z,18.88
2022-12-08T01:00:57.428Z,18.70
2022-12-08T01:01:13.605Z,19.75
2022-12-08T01:01:25.996Z,21.08
2022-12-08T01:01:38.083Z,21.55
2022-12-08T01:01:51.326Z,21.88
2022-12-08T01:02:03.277Z,19.15
2022-12-08T01:02:16.366Z,19.30
2022-12-08T01:02:28.353Z,19.20
2022-12-08T01:02:40.686Z,19.80
2022-12-08T01:02:52.720Z,19.13
2022-12-08T01:03:04.726Z,17.90
2022-12-08T01:03:16.738Z,20.20
2022-12-08T01:03:28.984Z,22.35
2022-12-08T01:03:42.281Z,21.95
2022-12-08T01:03:54.305Z,20.40
2022-12-08T01:04:08.312Z,21.23
2022-12-08T01:04:20.769Z,20.27
2022-12-08T01:04:34.441Z,20.05
2022-12-08T01:04:46.365Z,19.27
2022-12-08T01:04:58.290Z,17.98
2022-12-08T01:05:10.179Z,19.60
2022-12-08T01:05:22.205Z,21.30
2022-12-08T01:05:34.097Z,22.98
2022-12-08T01:05:47.744Z,19.70
2022-12-08T01:06:03.595Z,18.83
2022-12-08T01:06:15.602Z,20.42
2022-12-08T01:06:27.670Z,21.10
2022-12-08T01:06:39.852Z,20.25
2022-12-08T01:06:52.442Z,19.10
2022-12-08T01:07:04.856Z,19.63
2022-12-08T01:07:16.852Z,19.10
2022-12-08T01:07:29.042Z,19.95
2022-12-08T01:07:41.334Z,21.90
2022-12-08T01:07:53.299Z,21.08
2022-12-08T01:08:06.992Z,18.48
2022-12-08T01:08:19.027Z,19.17
2022-12-08T01:08:31.187Z,19.83
2022-12-08T01:08:43.374Z,22.00
2022-12-08T01:08:55.768Z,19.97
2022-12-08T01:09:08.434Z,18.27
2022-12-08T01:09:20.879Z,18.33
2022-12-08T01:09:32.969Z,19.42
2022-12-08T01:09:44.845Z,19.35
2022-12-08T01:09:58.796Z,19.73
2022-12-08T01:10:10.715Z,20.98
2022-12-08T01:10:23.725Z,18.13
2022-12-08T01:10:37.106Z,18.08
2022-12-08T01:10:49.035Z,19.27
2022-12-08T01:11:09.855Z,20.58
2022-12-08T01:11:22.474Z,18.70
2022-12-08T01:11:35.371Z,19.75
2022-12-08T01:11:48.562Z,19.65
2022-12-08T01:12:00.876Z,17.80
2022-12-08T01:12:12.740Z,18.08
2022-12-08T01:12:25.728Z,18.10
2022-12-08T01:12:37.820Z,18.55
2022-12-08T01:12:51.115Z,18.40
2022-12-08T01:13:03.810Z,19.23
2022-12-08T01:13:15.758Z,20.65
2022-12-08T01:13:29.433Z,20.15
2022-12-08T01:13:42.154Z,19.43
2022-12-08T01:13:54.126Z,17.88
2022-12-08T01:14:07.337Z,17.58
2022-12-08T01:14:19.256Z,18.75
2022-12-08T01:14:32.686Z,19.27
2022-12-08T01:14:44.718Z,19.27
2022-12-08T01:15:00.732Z,21.08
2022-12-08T01:15:14.992Z,20.83
2022-12-08T01:15:26.872Z,17.75
2022-12-08T01:15:38.791Z,17.27
2022-12-08T01:15:50.657Z,18.80
2022-12-08T01:16:03.028Z,19.38
2022-12-08T01:16:27.836Z,21.98
2022-12-08T01:16:41.428Z,20.63
2022-12-08T01:16:53.709Z,19.58
2022-12-08T01:17:05.831Z,18.13
2022-12-08T01:17:18.840Z,18.95
2022-12-08T01:17:30.883Z,20.35
2022-12-08T01:17:43.445Z,21.92
2022-12-08T01:17:55.382Z,20.50
2022-12-08T01:18:07.787Z,20.02
2022-12-08T01:18:19.709Z,17.75
2022-12-08T01:18:32.367Z,16.90
2022-12-08T01:18:44.258Z,16.60
2022-12-08T01:18:57.972Z,17.83
2022-12-08T01:19:14.730Z,18.95
2022-12-08T01:19:27.004Z,19.05
2022-12-08T01:19:38.928Z,23.73
2022-12-08T01:19:51.463Z,24.65
2022-12-08T01:20:05.137Z,22.80
2022-12-08T01:20:17.736Z,17.88
2022-12-08T01:20:29.647Z,18.20
2022-12-08T01:20:41.571Z,20.73
2022-12-08T01:20:53.707Z,22.35
2022-12-08T01:21:07.176Z,23.35
2022-12-08T01:21:20.151Z,22.67
2022-12-08T01:21:32.646Z,20.48
2022-12-08T01:21:45.700Z,28.08
2022-12-08T01:21:58.329Z,36.53
2022-12-08T01:22:10.228Z,38.78
2022-12-08T01:22:22.497Z,35.90
2022-12-08T01:22:36.034Z,37.65
2022-12-08T01:22:47.960Z,36.60
2022-12-08T01:23:00.128Z,33.83
2022-12-08T01:23:12.212Z,27.73
2022-12-08T01:23:24.796Z,22.98
2022-12-08T01:23:36.724Z,23.25
2022-12-08T01:23:48.657Z,23.58
2022-12-08T01:24:01.500Z,25.92
2022-12-08T01:24:21.698Z,28.50
2022-12-08T01:24:34.066Z,34.70
2022-12-08T01:24:46.899Z,35.95
2022-12-08T01:24:58.810Z,34.67
2022-12-08T01:25:10.686Z,32.15
2022-12-08T01:25:22.659Z,30.08
2022-12-08T01:25:35.374Z,26.55
2022-12-08T01:25:48.513Z,25.88
2022-12-08T01:26:10.940Z,26.60
2022-12-08T01:26:22.844Z,34.05
2022-12-08T01:26:34.773Z,39.60
2022-12-08T01:26:48.182Z,42.15
2022-12-08T01:27:00.117Z,40.88
2022-12-08T01:27:12.350Z,35.58
2022-12-08T01:27:24.249Z,33.80
2022-12-08T01:27:36.130Z,37.45
2022-12-08T01:27:49.215Z,36.83
2022-12-08T01:28:01.104Z,35.13
2022-12-08T01:28:13.065Z,32.58
2022-12-08T01:28:25.035Z,32.53
2022-12-08T01:28:37.720Z,32.10
2022-12-08T01:28:50.093Z,31.25
2022-12-08T01:29:02.020Z,29.90
2022-12-08T01:29:14.221Z,35.00
2022-12-08T01:29:27.029Z,45.03
2022-12-08T01:29:39.181Z,48.03
2022-12-08T01:29:51.571Z,36.05
2022-12-08T01:30:04.187Z,29.17
2022-12-08T01:30:17.206Z,26.55
2022-12-08T01:30:29.208Z,25.05
2022-12-08T01:30:41.590Z,24.45
2022-12-08T01:30:53.795Z,24.00
2022-12-08T01:31:11.732Z,22.13
2022-12-08T01:31:25.002Z,19.98
2022-12-08T01:31:37.495Z,22.83
2022-12-08T01:31:49.402Z,27.80
2022-12-08T01:32:02.067Z,32.13
2022-12-08T01:32:14.330Z,34.22
2022-12-08T01:32:26.200Z,32.30
2022-12-08T01:32:38.131Z,27.40
2022-12-08T01:32:50.299Z,23.08
2022-12-08T01:33:02.231Z,22.10
2022-12-08T01:33:14.130Z,21.88
2022-12-08T01:33:27.801Z,21.52
2022-12-08T01:33:39.990Z,22.95
2022-12-08T01:33:52.008Z,23.65
2022-12-08T01:34:04.266Z,21.58
2022-12-08T01:34:16.479Z,20.38
2022-12-08T01:34:28.949Z,20.73
2022-12-08T01:34:40.893Z,21.67
2022-12-08T01:34:52.918Z,22.55
2022-12-08T01:35:05.198Z,24.20
2022-12-08T01:35:17.276Z,24.63
2022-12-08T01:35:29.223Z,24.77
2022-12-08T01:35:41.096Z,22.30
2022-12-08T01:35:54.465Z,21.65
2022-12-08T01:36:07.068Z,21.35
2022-12-08T01:36:19.388Z,20.70
2022-12-08T01:36:32.913Z,19.67
2022-12-08T01:36:45.112Z,20.08
2022-12-08T01:36:57.423Z,19.73
2022-12-08T01:37:09.592Z,19.65
2022-12-08T01:37:21.521Z,21.65
2022-12-08T01:37:33.443Z,25.27
2022-12-08T01:37:45.475Z,26.13
2022-12-08T01:37:57.419Z,27.85
2022-12-08T01:38:09.323Z,26.67
2022-12-08T01:38:23.325Z,24.60
2022-12-08T01:38:35.329Z,22.63
2022-12-08T01:38:47.472Z,23.23
2022-12-08T01:39:02.323Z,24.77
2022-12-08T01:39:17.118Z,29.73
2022-12-08T01:39:29.865Z,30.10
2022-12-08T01:39:42.009Z,28.23
2022-12-08T01:39:53.922Z,25.60
2022-12-08T01:40:07.150Z,22.40
2022-12-08T01:40:19.320Z,19.23
2022-12-08T01:40:31.878Z,19.88
2022-12-08T01:40:43.803Z,19.40
2022-12-08T01:40:55.826Z,19.95
2022-12-08T01:41:07.949Z,19.38
2022-12-08T01:41:22.096Z,19.67
2022-12-08T01:41:37.452Z,19.92
2022-12-08T01:41:50.019Z,19.00
2022-12-08T01:42:01.908Z,18.58
2022-12-08T01:42:22.016Z,19.40
2022-12-08T01:42:34.962Z,18.88
2022-12-08T01:42:46.885Z,19.50
2022-12-08T01:42:58.771Z,19.83
2022-12-08T01:43:20.674Z,20.70
2022-12-08T01:43:56.372Z,24.90
2022-12-08T01:44:08.292Z,22.92
2022-12-08T01:44:20.364Z,20.08
2022-12-08T01:44:32.227Z,18.90
2022-12-08T01:44:44.108Z,47.97
2022-12-08T01:45:02.691Z,58.35
2022-12-08T01:45:24.596Z,39.78
2022-12-08T01:45:36.839Z,31.95
2022-12-08T01:45:48.867Z,28.70
2022-12-08T01:46:01.615Z,24.67
2022-12-08T01:46:13.617Z,22.15
2022-12-08T01:46:26.439Z,21.38
2022-12-08T01:46:42.772Z,20.65
2022-12-08T01:46:55.373Z,21.23
2022-12-08T01:47:07.389Z,21.02
2022-12-08T01:47:19.420Z,20.58
2022-12-08T01:47:40.116Z,21.27
2022-12-08T01:47:57.115Z,18.45
2022-12-08T01:48:26.733Z,20.10
2022-12-08T01:48:38.769Z,16.77
2022-12-08T01:48:54.521Z,17.70
2022-12-08T01:49:12.712Z,19.25
2022-12-08T01:49:32.885Z,21.27
2022-12-08T01:49:44.849Z,18.02
2022-12-08T01:49:56.906Z,17.40
2022-12-08T01:50:12.031Z,18.95
2022-12-08T01:50:24.503Z,18.98
2022-12-08T01:50:38.359Z,18.75
2022-12-08T01:50:51.773Z,20.23
2022-12-08T01:51:05.259Z,20.73
2022-12-08T01:51:17.669Z,19.73
2022-12-08T01:51:34.486Z,18.92
2022-12-08T01:52:07.631Z,18.95
2022-12-08T01:52:39.105Z,18.35
2022-12-08T01:53:01.367Z,18.75
2022-12-08T01:53:22.556Z,20.52
2022-12-08T01:53:34.625Z,22.13
2022-12-08T01:53:47.656Z,19.80
2022-12-08T01:54:00.297Z,18.95
2022-12-08T01:54:13.394Z,19.00
2022-12-08T01:54:29.235Z,18.48
2022-12-08T01:54:53.444Z,19.27
2022-12-08T01:55:48.196Z,21.05
2022-12-08T01:56:09.469Z,17.88
2022-12-08T01:56:30.893Z,18.80
2022-12-08T01:56:58.657Z,17.75
2022-12-08T01:57:16.937Z,17.33
2022-12-08T01:57:40.316Z,16.70
2022-12-08T01:58:08.255Z,19.40
2022-12-08T01:58:26.562Z,17.98
2022-12-08T01:58:45.627Z,18.50
2022-12-08T01:58:58.322Z,18.67
2022-12-08T01:59:11.643Z,18.00
2022-12-08T01:59:25.009Z,16.98
2022-12-08T01:59:41.369Z,17.80
2022-12-08T02:00:02.033Z,18.42
2022-12-08T02:00:17.362Z,17.63
2022-12-08T02:00:29.466Z,16.38
2022-12-08T02:00:42.307Z,17.05
2022-12-08T02:00:54.551Z,16.85
2022-12-08T02:01:07.523Z,16.63
2022-12-08T02:01:21.276Z,17.98
2022-12-08T02:01:33.615Z,18.67
2022-12-08T02:01:45.699Z,17.02
2022-12-08T02:01:58.006Z,17.23
2022-12-08T02:02:11.294Z,16.85
2022-12-08T02:02:27.306Z,16.15
2022-12-08T02:03:13.777Z,16.35
2022-12-08T02:03:36.543Z,18.20
2022-12-08T02:03:59.862Z,20.90
2022-12-08T02:04:11.875Z,19.23
2022-12-08T02:04:24.202Z,20.55
2022-12-08T02:04:36.125Z,20.05
2022-12-08T02:04:48.053Z,20.33
2022-12-08T02:05:00.311Z,18.52
2022-12-08T02:05:13.215Z,18.55
2022-12-08T02:05:35.335Z,17.10
2022-12-08T02:05:47.857Z,16.10
2022-12-08T02:05:59.732Z,16.95
2022-12-08T02:06:12.268Z,17.65
2022-12-08T02:06:25.851Z,17.77
2022-12-08T02:06:41.823Z,18.08
2022-12-08T02:06:54.884Z,18.13
2022-12-08T02:07:08.532Z,18.27
2022-12-08T02:07:22.028Z,18.30
2022-12-08T02:07:36.020Z,17.02
2022-12-08T02:07:49.182Z,16.13
2022-12-08T02:08:06.618Z,15.13
2022-12-08T02:08:19.839Z,15.93
2022-12-08T02:08:32.804Z,16.02
2022-12-08T02:08:45.901Z,16.83
2022-12-08T02:09:00.239Z,17.65
2022-12-08T02:09:12.854Z,16.92
2022-12-08T02:09:24.797Z,16.35
2022-12-08T02:09:38.213Z,16.85
2022-12-08T02:09:50.900Z,15.18
2022-12-08T02:10:05.202Z,14.55
2022-12-08T02:10:20.845Z,15.13
2022-12-08T02:10:35.205Z,15.45
2022-12-08T02:10:48.979Z,15.73
2022-12-08T02:11:00.921Z,17.50
2022-12-08T02:11:13.723Z,18.60
2022-12-08T02:11:27.404Z,18.17
2022-12-08T02:11:39.332Z,17.40
2022-12-08T02:11:51.341Z,16.30
2022-12-08T02:12:04.036Z,16.75
2022-12-08T02:12:16.135Z,17.50
2022-12-08T02:12:28.709Z,19.65
2022-12-08T02:12:40.685Z,19.83
2022-12-08T02:12:55.999Z,17.60
2022-12-08T02:13:13.451Z,15.73
2022-12-08T02:13:25.840Z,16.27
2022-12-08T02:13:38.961Z,16.33
2022-12-08T02:13:53.317Z,15.93
2022-12-08T02:14:08.741Z,17.25
2022-12-08T02:14:20.796Z,18.83
2022-12-08T02:14:34.375Z,18.10
2022-12-08T02:14:46.326Z,17.30
2022-12-08T02:15:04.817Z,16.25
2022-12-08T02:15:19.926Z,15.52
2022-12-08T02:15:40.980Z,16.20
2022-12-08T02:16:16.993Z,16.40
2022-12-08T02:17:08.006Z,15.27
2022-12-08T02:17:28.970Z,14.63
2022-12-08T02:17:58.143Z,16.70
2022-12-08T02:18:25.714Z,18.15
2022-12-08T02:19:31.561Z,17.35
2022-12-08T02:20:04.798Z,15.93
2022-12-08T02:20:31.711Z,16.77
2022-12-08T02:20:58.825Z,17.30
2022-12-08T02:21:41.712Z,17.20
2022-12-08T02:22:13.407Z,16.70
2022-12-08T02:22:42.754Z,17.55
2022-12-08T02:23:04.973Z,16.98
2022-12-08T02:23:41.563Z,17.73
2022-12-08T02:24:10.569Z,16.02
2022-12-08T02:24:31.767Z,16.23
2022-12-08T02:25:07.859Z,14.93
2022-12-08T02:25:29.196Z,16.30
2022-12-08T02:26:02.408Z,16.10
2022-12-08T02:26:51.294Z,16.27
2022-12-08T02:27:08.947Z,14.73
2022-12-08T02:27:49.109Z,17.98
2022-12-08T02:28:08.382Z,14.95
2022-12-08T02:28:55.340Z,15.23
2022-12-08T02:29:32.584Z,15.15
2022-12-08T02:30:06.454Z,16.10
2022-12-08T02:30:23.471Z,15.70
2022-12-08T02:30:50.195Z,15.30
2022-12-08T02:31:20.771Z,16.63
2022-12-08T02:31:58.676Z,15.40
2022-12-08T02:32:19.568Z,15.90
2022-12-08T02:32:43.326Z,16.48
2022-12-08T02:32:57.920Z,14.50
2022-12-08T02:33:40.618Z,13.75
2022-12-08T02:34:23.228Z,16.88
2022-12-08T02:34:44.269Z,16.15
2022-12-08T02:35:21.439Z,15.85
2022-12-08T02:35:49.726Z,15.68
2022-12-08T02:36:01.574Z,17.67
2022-12-08T02:36:20.005Z,18.35
2022-12-08T02:36:56.291Z,15.85
2022-12-08T02:37:15.759Z,15.68
2022-12-08T02:37:41.210Z,15.20
2022-12-08T02:38:14.897Z,18.05
2022-12-08T02:38:26.739Z,17.15
2022-12-08T02:38:45.722Z,16.52
2022-12-08T02:39:24.739Z,14.88
2022-12-08T02:39:53.853Z,16.88
2022-12-08T02:40:28.287Z,18.42
2022-12-08T02:41:03.887Z,14.32
2022-12-08T02:41:30.680Z,16.92
2022-12-08T02:41:56.602Z,14.50
2022-12-08T02:42:19.266Z,16.85
2022-12-08T02:42:42.275Z,14.75
2022-12-08T02:43:01.322Z,16.60
2022-12-08T02:43:22.549Z,16.42
2022-12-08T02:44:00.702Z,17.35
2022-12-08T02:44:22.786Z,15.15
2022-12-08T02:44:48.296Z,14.27
2022-12-08T02:45:03.408Z,14.77
2022-12-08T02:45:36.692Z,16.08
2022-12-08T02:45:59.824Z,16.77
2022-12-08T02:46:19.280Z,14.77
2022-12-08T02:46:38.201Z,13.93
2022-12-08T02:47:01.136Z,14.82
2022-12-08T02:47:17.681Z,13.90
2022-12-08T02:47:32.034Z,13.32
2022-12-08T02:47:44.769Z,14.45
2022-12-08T02:47:58.929Z,16.02
2022-12-08T02:48:10.989Z,14.95
2022-12-08T02:48:22.868Z,14.60
2022-12-08T02:48:35.058Z,14.18
2022-12-08T02:48:47.795Z,13.65
2022-12-08T02:49:00.146Z,13.80
2022-12-08T02:49:15.037Z,14.25
2022-12-08T02:49:33.727Z,15.98
2022-12-08T02:49:47.054Z,15.30
2022-12-08T02:49:59.128Z,13.95
2022-12-08T02:50:12.094Z,13.98
2022-12-08T02:50:24.084Z,14.98
2022-12-08T02:50:36.392Z,16.58
2022-12-08T02:50:49.475Z,15.90
2022-12-08T02:51:01.438Z,14.93
2022-12-08T02:51:13.595Z,14.88
2022-12-08T02:51:26.150Z,15.90
2022-12-08T02:51:38.032Z,15.23
2022-12-08T02:51:49.895Z,12.93
2022-12-08T02:52:27.823Z,13.43
2022-12-08T02:52:42.784Z,15.02
2022-12-08T02:52:56.464Z,14.50
2022-12-08T02:53:20.224Z,15.73
2022-12-08T02:53:35.112Z,16.20
2022-12-08T02:53:47.898Z,16.58
2022-12-08T02:54:00.883Z,15.13
2022-12-08T02:54:14.339Z,16.25
2022-12-08T02:54:26.540Z,16.17
2022-12-08T02:54:46.692Z,14.70
2022-12-08T02:55:26.522Z,17.08
2022-12-08T02:55:51.293Z,14.82
2022-12-08T02:56:17.501Z,12.35
2022-12-08T02:56:35.156Z,13.38
2022-12-08T02:57:06.149Z,17.50
2022-12-08T02:57:45.507Z,16.23
2022-12-08T02:58:25.094Z,14.48
2022-12-08T02:58:49.438Z,13.93
2022-12-08T02:59:22.218Z,14.48
2022-12-08T02:59:49.096Z,13.70
2022-12-08T03:00:09.035Z,13.90
2022-12-08T03:00:23.539Z,13.77
2022-12-08T03:01:01.583Z,12.93
2022-12-08T03:01:33.559Z,13.95
2022-12-08T03:01:51.052Z,14.52
2022-12-08T03:02:12.074Z,12.93
2022-12-08T03:02:39.773Z,13.77
2022-12-08T03:03:20.276Z,12.93
2022-12-08T03:03:46.183Z,13.60
2022-12-08T03:04:30.945Z,12.20
2022-12-08T03:05:05.277Z,13.05
2022-12-08T03:05:39.074Z,12.13
2022-12-08T03:06:21.436Z,12.02
2022-12-08T03:07:02.926Z,14.82
2022-12-08T03:07:29.181Z,12.93
2022-12-08T03:07:52.559Z,13.68
2022-12-08T03:08:29.318Z,12.38
2022-12-08T03:08:57.944Z,11.10
2022-12-08T03:09:17.385Z,13.68
2022-12-08T03:09:38.207Z,14.25
2022-12-08T03:09:58.591Z,12.90
2022-12-08T03:10:17.479Z,14.38
2022-12-08T03:10:36.930Z,13.25
2022-12-08T03:10:54.909Z,14.13
2022-12-08T03:11:20.263Z,12.85
2022-12-08T03:11:44.500Z,14.48
2022-12-08T03:12:06.502Z,12.35
2022-12-08T03:12:40.046Z,12.23
2022-12-08T03:13:23.441Z,27.08
2022-12-08T03:13:48.565Z,18.95
2022-12-08T03:14:04.826Z,13.70
2022-12-08T03:14:19.324Z,12.32
2022-12-08T03:14:33.805Z,11.93
2022-12-08T03:14:50.200Z,13.48
2022-12-08T03:15:08.593Z,15.77
2022-12-08T03:15:21.598Z,13.48
2022-12-08T03:15:37.241Z,12.35
2022-12-08T03:15:51.737Z,14.32
2022-12-08T03:16:08.307Z,17.98
2022-12-08T03:16:25.002Z,19.27
2022-12-08T03:16:39.804Z,16.17
2022-12-08T03:16:55.687Z,12.32
2022-12-08T03:17:08.937Z,11.77
2022-12-08T03:17:25.487Z,12.55
2022-12-08T03:17:41.055Z,12.50
2022-12-08T03:17:57.656Z,12.43
2022-12-08T03:18:13.124Z,13.77
2022-12-08T03:18:29.701Z,14.05
2022-12-08T03:18:51.768Z,15.55
2022-12-08T03:19:11.897Z,17.25
2022-12-08T03:19:37.415Z,13.65
2022-12-08T03:19:50.024Z,14.13
2022-12-08T03:20:09.656Z,16.27
2022-12-08T03:20:24.915Z,18.33
2022-12-08T03:20:39.827Z,15.98
2022-12-08T03:20:51.935Z,16.05
2022-12-08T03:21:04.210Z,17.23
2022-12-08T03:21:19.425Z,19.83
2022-12-08T03:21:35.727Z,19.33
2022-12-08T03:21:52.314Z,16.00
2022-12-08T03:22:06.619Z,21.50
2022-12-08T03:22:23.520Z,24.85
2022-12-08T03:22:36.839Z,19.33
2022-12-08T03:22:52.630Z,15.52
2022-12-08T03:23:08.335Z,14.75
2022-12-08T03:23:22.693Z,15.95
2022-12-08T03:23:37.012Z,15.35
2022-12-08T03:23:54.137Z,14.80
2022-12-08T03:24:08.491Z,15.98
2022-12-08T03:24:23.069Z,16.83
2022-12-08T03:24:38.011Z,16.92
2022-12-08T03:24:50.681Z,19.98
2022-12-08T03:25:02.803Z,21.15
2022-12-08T03:25:17.049Z,20.63
2022-12-08T03:25:36.598Z,16.45
2022-12-08T03:26:01.735Z,15.52
2022-12-08T03:26:22.554Z,12.90